createdAt,value
2019-03-10T00:00:41.599Z,98153.20
2019-03-10T00:03:08.206Z,98143.16
2019-03-10T00:05:34.778Z,98133.59
2019-03-10T00:08:01.373Z,98118.80
2019-03-10T00:10:27.984Z,98125.37
2019-03-10T00:12:54.638Z,98122.14
2019-03-10T00:15:21.221Z,98121.67
2019-03-10T00:17:47.924Z,98137.80
2019-03-10T00:20:14.506Z,98124.94
2019-03-10T00:22:41.116Z,98116.58
2019-03-10T00:25:07.688Z,98122.47
2019-03-10T00:27:34.280Z,98130.52
2019-03-10T00:30:00.847Z,98108.69
2019-03-10T00:32:27.538Z,98103.13
2019-03-10T00:34:54.109Z,98106.66
2019-03-10T00:37:20.710Z,98112.04
2019-03-10T00:39:47.306Z,98105.16
2019-03-10T00:42:13.899Z,98105.22
2019-03-10T00:44:40.474Z,98117.31
2019-03-10T00:47:07.042Z,98109.18
2019-03-10T00:49:33.646Z,98100.61
2019-03-10T00:52:00.227Z,98135.63
2019-03-10T00:54:26.837Z,98108.87
2019-03-10T00:56:53.404Z,98108.77
2019-03-10T00:59:20.039Z,98141.36
2019-03-10T01:01:46.609Z,98124.38
2019-03-10T01:04:13.231Z,98121.85
2019-03-10T01:06:39.854Z,98131.53
2019-03-10T01:09:06.565Z,98124.38
2019-03-10T01:11:33.132Z,98321.77
2019-03-10T01:13:59.731Z,98281.23
2019-03-10T01:16:26.303Z,98264.55
2019-03-10T01:18:52.912Z,98270.35
2019-03-10T01:21:19.480Z,98277.09
2019-03-10T01:23:46.086Z,98272.23
2019-03-10T01:26:12.654Z,98248.51
2019-03-10T01:28:39.323Z,98236.86
2019-03-10T01:31:05.898Z,98276.36
2019-03-10T01:33:32.659Z,98258.66
2019-03-10T01:35:59.222Z,98232.73
2019-03-10T01:38:25.802Z,98266.16
2019-03-10T01:40:52.366Z,98250.08
2019-03-10T01:43:18.944Z,98271.39
2019-03-10T01:45:45.526Z,98286.16
2019-03-10T01:48:12.093Z,98270.84
2019-03-10T01:50:38.671Z,98289.84
2019-03-10T01:53:05.231Z,98295.92
2019-03-10T01:55:31.830Z,98318.55
2019-03-10T01:57:58.385Z,98286.60
2019-03-10T02:00:24.958Z,98333.16
2019-03-10T02:02:51.530Z,98303.33
2019-03-10T02:05:18.098Z,98321.87
2019-03-10T02:07:44.674Z,98334.33
2019-03-10T02:10:11.249Z,98331.09
2019-03-10T02:12:37.848Z,98337.92
2019-03-10T02:15:04.438Z,98340.81
2019-03-10T02:17:31.001Z,98346.34
2019-03-10T02:19:57.577Z,98359.66
2019-03-10T02:22:24.199Z,98369.03
2019-03-10T02:24:50.782Z,98373.53
2019-03-10T02:27:17.347Z,98375.81
2019-03-10T02:29:43.922Z,98384.66
2019-03-10T02:32:10.490Z,98397.38
2019-03-10T02:34:37.086Z,98404.53
2019-03-10T02:37:03.654Z,98413.36
2019-03-10T02:39:30.256Z,98412.61
2019-03-10T02:41:56.836Z,98428.17
2019-03-10T02:44:23.411Z,98446.80
2019-03-10T02:46:50.025Z,98448.58
2019-03-10T02:49:16.606Z,98448.03
2019-03-10T02:51:43.167Z,98466.30
2019-03-10T02:54:09.789Z,98462.83
2019-03-10T02:56:36.356Z,98494.44
2019-03-10T02:59:02.935Z,98483.73
2019-03-10T03:01:29.553Z,98476.81
2019-03-10T03:03:56.160Z,98506.38
2019-03-10T03:06:22.765Z,98505.69
2019-03-10T03:08:49.338Z,98497.36
2019-03-10T03:11:15.940Z,98504.84
2019-03-10T03:13:42.588Z,98506.15
2019-03-10T03:16:09.191Z,98511.47
2019-03-10T03:18:35.762Z,98525.11
2019-03-10T03:21:02.493Z,98524.65
2019-03-10T03:23:29.065Z,98522.11
2019-03-10T03:25:55.757Z,98515.17
2019-03-10T03:28:22.331Z,98516.95
2019-03-10T03:30:48.963Z,98523.42
2019-03-10T03:33:15.595Z,98530.20
2019-03-10T03:35:42.190Z,98534.68
2019-03-10T03:38:08.767Z,98573.16
2019-03-10T03:40:35.383Z,98550.51
2019-03-10T03:43:01.956Z,98545.27
2019-03-10T03:45:28.544Z,98542.42
2019-03-10T03:47:55.192Z,98559.91
2019-03-10T03:50:21.792Z,98555.67
2019-03-10T03:52:48.392Z,98542.27
2019-03-10T03:55:15.029Z,98538.58
2019-03-10T03:57:41.636Z,98557.56
2019-03-10T04:00:08.243Z,98559.41
2019-03-10T04:02:34.873Z,98573.05
2019-03-10T04:05:01.478Z,98565.27
2019-03-10T04:07:28.048Z,98570.97
2019-03-10T04:09:54.653Z,98577.97
2019-03-10T04:12:21.225Z,98574.28
2019-03-10T04:14:47.812Z,98581.94
2019-03-10T04:17:14.433Z,98569.92
2019-03-10T04:19:41.001Z,98578.84
2019-03-10T04:22:07.570Z,98575.15
2019-03-10T04:24:34.155Z,98581.03
2019-03-10T04:27:00.736Z,98581.72
2019-03-10T04:29:27.299Z,98579.25
2019-03-10T04:31:53.872Z,98581.17
2019-03-10T04:34:20.446Z,98590.05
2019-03-10T04:36:47.030Z,98581.95
2019-03-10T04:39:13.594Z,98591.65
2019-03-10T04:41:40.175Z,98599.61
2019-03-10T04:44:06.742Z,98605.84
2019-03-10T04:46:33.313Z,98608.17
2019-03-10T04:48:59.923Z,98610.48
2019-03-10T04:51:26.499Z,98613.63
2019-03-10T04:53:53.063Z,98624.16
2019-03-10T04:56:19.645Z,98619.08
2019-03-10T04:58:46.218Z,98629.22
2019-03-10T05:01:12.791Z,98634.59
2019-03-10T05:03:39.362Z,98632.09
2019-03-10T05:06:05.925Z,98647.00
2019-03-10T05:08:32.504Z,98660.22
2019-03-10T05:10:59.088Z,98659.44
2019-03-10T05:13:25.665Z,98673.89
2019-03-10T05:15:52.237Z,98656.64
2019-03-10T05:18:18.810Z,98656.81
2019-03-10T05:20:45.392Z,98665.97
2019-03-10T05:23:11.959Z,98662.12
2019-03-10T05:25:38.543Z,98672.58
2019-03-10T05:28:05.117Z,98677.73
2019-03-10T05:30:31.724Z,98671.66
2019-03-10T05:32:58.296Z,98667.17
2019-03-10T05:35:24.920Z,98666.25
2019-03-10T05:37:51.493Z,98676.12
2019-03-10T05:40:18.067Z,98666.50
2019-03-10T05:42:44.647Z,98666.75
2019-03-10T05:45:11.217Z,98658.98
2019-03-10T05:47:37.797Z,98660.85
2019-03-10T05:50:04.367Z,98665.09
2019-03-10T05:52:30.925Z,98660.25
2019-03-10T05:54:57.491Z,98656.40
2019-03-10T05:57:24.057Z,98667.33
2019-03-10T05:59:50.629Z,98653.33
2019-03-10T06:02:17.201Z,98660.71
2019-03-10T06:04:43.781Z,98673.27
2019-03-10T06:07:10.381Z,98673.65
2019-03-10T06:09:36.988Z,98679.55
2019-03-10T06:12:03.679Z,98682.09
2019-03-10T06:14:30.281Z,98690.30
2019-03-10T06:16:56.884Z,98684.00
2019-03-10T06:19:23.458Z,98696.02
2019-03-10T06:21:50.068Z,98692.48
2019-03-10T06:24:16.648Z,98680.53
2019-03-10T06:26:43.235Z,98686.47
2019-03-10T06:29:09.805Z,98692.41
2019-03-10T06:31:36.420Z,98693.50
2019-03-10T06:34:03.009Z,98684.09
2019-03-10T06:36:29.620Z,98683.80
2019-03-10T06:38:56.186Z,98707.34
2019-03-10T06:41:22.778Z,98678.17
2019-03-10T06:43:49.345Z,98682.92
2019-03-10T06:46:16.062Z,98682.02
2019-03-10T06:48:42.640Z,98690.16
2019-03-10T06:51:09.249Z,98678.26
2019-03-10T06:53:35.810Z,98677.72
2019-03-10T06:56:02.381Z,98685.00
2019-03-10T06:58:28.970Z,98681.98
2019-03-10T07:00:55.536Z,98677.92
2019-03-10T07:03:22.144Z,98688.75
2019-03-10T07:05:48.707Z,98681.25
2019-03-10T07:08:15.286Z,98681.66
2019-03-10T07:10:41.894Z,98682.67
2019-03-10T07:13:08.512Z,98680.70
2019-03-10T07:15:35.076Z,98681.31
2019-03-10T07:18:01.655Z,98674.13
2019-03-10T07:20:28.229Z,98675.58
2019-03-10T07:22:54.797Z,98671.30
2019-03-10T07:25:21.367Z,98676.80
2019-03-10T07:27:47.946Z,98691.40
2019-03-10T07:30:14.543Z,98684.66
2019-03-10T07:32:41.190Z,98683.36
2019-03-10T07:35:07.775Z,98679.55
2019-03-10T07:37:34.403Z,98685.66
2019-03-10T07:40:01.992Z,98684.23
2019-03-10T07:42:28.612Z,98689.31
2019-03-10T07:44:55.314Z,98684.63
2019-03-10T07:47:21.918Z,98690.53
2019-03-10T07:49:48.492Z,98687.24
2019-03-10T07:52:20.391Z,98684.97
2019-03-10T07:54:43.370Z,98686.84
2019-03-10T07:57:09.941Z,98688.83
2019-03-10T07:59:36.620Z,98684.56
2019-03-10T08:02:03.260Z,98682.03
2019-03-10T08:04:29.820Z,98677.80
2019-03-10T08:06:56.383Z,98673.44
2019-03-10T08:09:23.170Z,98671.92
2019-03-10T08:11:49.743Z,98675.55
2019-03-10T08:14:16.319Z,98669.61
2019-03-10T08:16:42.889Z,98666.37
2019-03-10T08:19:09.471Z,98661.80
2019-03-10T08:21:36.039Z,98674.01
2019-03-10T08:24:02.611Z,98665.61
2019-03-10T08:26:29.231Z,98674.14
2019-03-10T08:28:55.799Z,98661.08
2019-03-10T08:31:22.400Z,98662.73
2019-03-10T08:33:48.967Z,98645.54
2019-03-10T08:36:15.567Z,98644.76
2019-03-10T08:38:42.269Z,98644.80
2019-03-10T08:41:08.861Z,98644.48
2019-03-10T08:43:35.481Z,98649.27
2019-03-10T08:46:02.050Z,98643.41
2019-03-10T08:48:28.660Z,98647.00
2019-03-10T08:50:55.221Z,98642.16
2019-03-10T08:53:21.812Z,98649.05
2019-03-10T08:55:48.383Z,98658.33
2019-03-10T08:58:15.002Z,98658.23
2019-03-10T09:00:41.577Z,98648.41
2019-03-10T09:03:08.211Z,98640.64
2019-03-10T09:05:34.791Z,98650.84
2019-03-10T09:08:01.373Z,98633.41
2019-03-10T09:10:27.943Z,98638.38
2019-03-10T09:12:54.507Z,98631.73
2019-03-10T09:15:21.088Z,98637.31
2019-03-10T09:17:47.660Z,98619.81
2019-03-10T09:20:14.234Z,98616.61
2019-03-10T09:22:40.822Z,98605.22
2019-03-10T09:25:07.420Z,98611.01
2019-03-10T09:27:33.998Z,98610.08
2019-03-10T09:30:00.647Z,98601.77
2019-03-10T09:32:27.221Z,98605.76
2019-03-10T09:34:53.795Z,98611.41
2019-03-10T09:37:20.362Z,98597.12
2019-03-10T09:39:46.947Z,98607.47
2019-03-10T09:42:13.542Z,98589.91
2019-03-10T09:44:40.111Z,98581.02
2019-03-10T09:47:06.724Z,98574.64
2019-03-10T09:49:33.294Z,98573.70
2019-03-10T09:51:59.882Z,98578.33
2019-03-10T09:54:26.457Z,98577.81
2019-03-10T09:56:53.367Z,98588.03
2019-03-10T09:59:19.934Z,98566.29
2019-03-10T10:01:46.511Z,98553.77
2019-03-10T10:04:13.087Z,98549.27
2019-03-10T10:06:39.654Z,98540.63
2019-03-10T10:09:06.256Z,98546.12
2019-03-10T10:11:32.830Z,98534.34
2019-03-10T10:13:59.446Z,98532.02
2019-03-10T10:16:26.076Z,98525.75
2019-03-10T10:18:52.685Z,98514.74
2019-03-10T10:21:19.271Z,98519.95
2019-03-10T10:23:45.858Z,98510.69
2019-03-10T10:26:12.436Z,98514.14
2019-03-10T10:28:39.019Z,98512.47
2019-03-10T10:31:05.703Z,98515.13
2019-03-10T10:33:33.898Z,98507.34
2019-03-10T10:36:00.479Z,98494.55
2019-03-10T10:38:27.149Z,98493.36
2019-03-10T10:40:53.727Z,98507.61
2019-03-10T10:43:20.288Z,98490.17
2019-03-10T10:45:46.872Z,98487.70
2019-03-10T10:48:13.456Z,98496.02
2019-03-10T10:50:40.149Z,98475.52
2019-03-10T10:53:06.789Z,98472.66
2019-03-10T10:55:33.540Z,98461.13
2019-03-10T10:58:00.183Z,98466.67
2019-03-10T11:00:26.747Z,98464.95
2019-03-10T11:02:53.336Z,98469.69
2019-03-10T11:05:19.921Z,98463.45
2019-03-10T11:07:46.534Z,98463.13
2019-03-10T11:10:13.100Z,98455.01
2019-03-10T11:12:39.716Z,98489.14
2019-03-10T11:15:06.371Z,98466.29
2019-03-10T11:17:32.973Z,98486.53
2019-03-10T11:19:59.536Z,98478.06
2019-03-10T11:22:26.155Z,98468.31
2019-03-10T11:24:52.718Z,98469.87
2019-03-10T11:27:19.305Z,98454.19
2019-03-10T11:29:45.884Z,98455.41
2019-03-10T11:32:12.469Z,98453.52
2019-03-10T11:34:39.053Z,98443.66
2019-03-10T11:37:05.621Z,98434.61
2019-03-10T11:39:32.276Z,98430.02
2019-03-10T11:41:58.912Z,98427.09
2019-03-10T11:44:25.510Z,98417.06
2019-03-10T11:46:52.112Z,98407.02
2019-03-10T11:49:18.705Z,98418.77
2019-03-10T11:51:45.289Z,98405.66
2019-03-10T11:54:11.854Z,98409.65
2019-03-10T11:56:38.435Z,98404.61
2019-03-10T11:59:05.005Z,98395.92
2019-03-10T12:01:31.585Z,98375.92
2019-03-10T12:03:58.163Z,98377.35
2019-03-10T12:06:24.742Z,98377.35
2019-03-10T12:08:51.319Z,98371.80
2019-03-10T12:11:17.890Z,98368.70
2019-03-10T12:13:44.465Z,98376.06
2019-03-10T12:16:11.078Z,98363.16
2019-03-10T12:18:37.764Z,98363.92
2019-03-10T12:21:04.349Z,98354.34
2019-03-10T12:23:30.963Z,98352.39
2019-03-10T12:25:57.537Z,98342.97
2019-03-10T12:28:24.112Z,98332.36
2019-03-10T12:30:50.711Z,98333.95
2019-03-10T12:33:17.279Z,98325.02
2019-03-10T12:35:43.856Z,98329.53
2019-03-10T12:38:10.420Z,98315.45
2019-03-10T12:40:37.006Z,98320.73
2019-03-10T12:43:03.583Z,98313.67
2019-03-10T12:45:30.211Z,98311.27
2019-03-10T12:47:56.785Z,98299.33
2019-03-10T12:50:23.397Z,98293.06
2019-03-10T12:52:49.976Z,98281.20
2019-03-10T12:55:16.576Z,98283.05
2019-03-10T12:57:43.179Z,98283.63
2019-03-10T13:00:09.754Z,98274.23
2019-03-10T13:02:36.362Z,98270.73
2019-03-10T13:05:02.929Z,98267.44
2019-03-10T13:07:29.526Z,98257.19
2019-03-10T13:09:56.105Z,98248.02
2019-03-10T13:12:22.713Z,98238.73
2019-03-10T13:14:58.912Z,98238.88
2019-03-10T13:17:17.605Z,98242.67
2019-03-10T13:19:44.241Z,98236.81
2019-03-10T13:22:10.840Z,98230.61
2019-03-10T13:24:37.423Z,98240.45
2019-03-10T13:27:04.067Z,98219.38
2019-03-10T13:29:30.741Z,98230.44
2019-03-10T13:31:57.336Z,98225.20
2019-03-10T13:34:23.916Z,98240.77
2019-03-10T13:36:50.508Z,98220.20
2019-03-10T13:39:17.084Z,98220.09
2019-03-10T13:41:43.688Z,98223.05
2019-03-10T13:44:10.268Z,98214.02
2019-03-10T13:46:36.872Z,98217.30
2019-03-10T13:49:03.460Z,98212.97
2019-03-10T13:51:30.066Z,98221.25
2019-03-10T13:53:56.664Z,98221.87
2019-03-10T13:56:23.274Z,98215.02
2019-03-10T13:58:49.842Z,98204.83
2019-03-10T14:01:16.820Z,98199.92
2019-03-10T14:03:43.391Z,98194.87
2019-03-10T14:06:09.998Z,98198.84
2019-03-10T14:08:36.563Z,98188.28
2019-03-10T14:11:03.178Z,98190.18
2019-03-10T14:13:29.750Z,98182.76
2019-03-10T14:15:56.364Z,98176.88
2019-03-10T14:18:22.936Z,98181.17
2019-03-10T14:20:49.516Z,98165.84
2019-03-10T14:23:16.086Z,98152.28
2019-03-10T14:25:42.671Z,98156.25
2019-03-10T14:28:09.239Z,98150.34
2019-03-10T14:30:35.813Z,98152.25
2019-03-10T14:33:02.393Z,98143.59
2019-03-10T14:35:29.256Z,98137.70
2019-03-10T14:37:55.896Z,98130.66
2019-03-10T14:40:22.468Z,98126.09
2019-03-10T14:42:49.039Z,98123.31
2019-03-10T14:45:15.617Z,98111.91
2019-03-10T14:47:42.235Z,98094.87
2019-03-10T14:50:08.815Z,98081.67
2019-03-10T14:52:35.422Z,98080.10
2019-03-10T14:55:02.016Z,98066.82
2019-03-10T14:57:28.612Z,98051.77
2019-03-10T14:59:55.185Z,98046.78
2019-03-10T15:02:21.800Z,98050.41
2019-03-10T15:04:48.379Z,98044.91
2019-03-10T15:07:14.994Z,98036.87
2019-03-10T15:09:41.571Z,98038.56
2019-03-10T15:12:08.178Z,98030.17
2019-03-10T15:14:34.750Z,98022.02
2019-03-10T15:17:02.102Z,98014.47
2019-03-10T15:19:29.863Z,98001.19
2019-03-10T15:21:56.486Z,97995.92
2019-03-10T15:24:23.067Z,97987.41
2019-03-10T15:26:49.684Z,97981.53
2019-03-10T15:29:16.262Z,97978.30
2019-03-10T15:31:42.871Z,97971.13
2019-03-10T15:34:09.435Z,97961.19
2019-03-10T15:36:36.045Z,97950.52
2019-03-10T15:39:02.632Z,97941.90
2019-03-10T15:41:29.249Z,97929.80
2019-03-10T15:43:55.815Z,97911.84
2019-03-10T15:46:22.392Z,97895.31
2019-03-10T15:48:48.970Z,97891.48
2019-03-10T15:51:15.545Z,97883.22
2019-03-10T15:53:42.143Z,97881.57
2019-03-10T15:56:08.831Z,97870.67
2019-03-10T15:58:35.487Z,97860.97
2019-03-10T16:01:03.993Z,97847.44
2019-03-10T16:03:30.361Z,97856.06
2019-03-10T16:05:56.948Z,97834.00
2019-03-10T16:08:23.537Z,97841.42
2019-03-10T16:10:50.111Z,97840.95
2019-03-10T16:13:16.696Z,97836.05
2019-03-10T16:15:43.272Z,97820.12
2019-03-10T16:18:09.845Z,97812.09
2019-03-10T16:20:36.413Z,97800.60
2019-03-10T16:23:02.990Z,97787.91
2019-03-10T16:25:29.559Z,97791.02
2019-03-10T16:27:56.139Z,97783.24
2019-03-10T16:30:22.717Z,97766.84
2019-03-10T16:32:49.308Z,97770.22
2019-03-10T16:35:15.890Z,97782.77
2019-03-10T16:37:42.494Z,97775.70
2019-03-10T16:40:09.067Z,97759.78
2019-03-10T16:42:35.687Z,97748.92
2019-03-10T16:45:02.293Z,97749.25
2019-03-10T16:47:28.870Z,97746.97
2019-03-10T16:49:55.451Z,97747.81
2019-03-10T16:52:22.113Z,97745.89
2019-03-10T16:54:48.695Z,97744.09
2019-03-10T16:57:15.307Z,97739.31
2019-03-10T16:59:41.884Z,97735.96
2019-03-10T17:02:08.480Z,97736.59
2019-03-10T17:04:35.049Z,97737.31
2019-03-10T17:07:01.627Z,97738.27
2019-03-10T17:09:29.303Z,97736.59
2019-03-10T17:11:55.867Z,97744.49
2019-03-10T17:14:22.446Z,97741.50
2019-03-10T17:16:49.023Z,97731.69
2019-03-10T17:19:15.614Z,97726.90
2019-03-10T17:21:42.297Z,97709.67
2019-03-10T17:24:08.850Z,97697.22
2019-03-10T17:26:35.561Z,97704.64
2019-03-10T17:29:02.146Z,97699.37
2019-03-10T17:31:28.719Z,97691.00
2019-03-10T17:33:55.309Z,97680.11
2019-03-10T17:36:22.176Z,97665.16
2019-03-10T17:38:48.778Z,97660.97
2019-03-10T17:41:15.679Z,97649.75
2019-03-10T17:43:42.322Z,97638.87
2019-03-10T17:46:08.903Z,97617.92
2019-03-10T17:48:35.485Z,97606.20
2019-03-10T17:51:02.059Z,97588.50
2019-03-10T17:53:28.633Z,97586.95
2019-03-10T17:55:55.207Z,97574.19
2019-03-10T17:58:21.787Z,97577.06
2019-03-10T18:00:48.359Z,97593.94
2019-03-10T18:03:14.938Z,97606.86
2019-03-10T18:05:41.509Z,97603.39
2019-03-10T18:08:08.083Z,97605.66
2019-03-10T18:10:34.663Z,97613.91
2019-03-10T18:13:01.231Z,97589.75
2019-03-10T18:15:27.889Z,97577.91
2019-03-10T18:17:54.498Z,97597.53
2019-03-10T18:20:21.127Z,97605.42
2019-03-10T18:22:47.824Z,97598.13
2019-03-10T18:25:14.397Z,97600.52
2019-03-10T18:27:41.005Z,97588.27
2019-03-10T18:30:07.580Z,97594.25
2019-03-10T18:32:34.156Z,97588.73
2019-03-10T18:35:00.745Z,97585.86
2019-03-10T18:37:27.307Z,97582.98
2019-03-10T18:39:53.887Z,97573.01
2019-03-10T18:42:20.458Z,97565.95
2019-03-10T18:44:47.044Z,97556.61
2019-03-10T18:47:13.627Z,97555.30
2019-03-10T18:49:40.237Z,97538.89
2019-03-10T18:52:06.825Z,97530.52
2019-03-10T18:54:33.390Z,97512.44
2019-03-10T18:56:59.967Z,97445.66
2019-03-10T18:59:26.574Z,97446.97
2019-03-10T19:01:53.146Z,97493.28
2019-03-10T19:04:19.765Z,97507.41
2019-03-10T19:06:46.334Z,97527.15
2019-03-10T19:09:16.394Z,97536.59
2019-03-10T19:11:42.986Z,97528.11
2019-03-10T19:14:09.658Z,97524.11
2019-03-10T19:16:36.283Z,97526.97
2019-03-10T19:19:02.899Z,97532.11
2019-03-10T19:21:29.472Z,97526.23
2019-03-10T19:23:56.144Z,97520.23
2019-03-10T19:26:22.771Z,97522.78
2019-03-10T19:28:49.987Z,97535.22
2019-03-10T19:31:16.567Z,97542.83
2019-03-10T19:33:43.176Z,97545.70
2019-03-10T19:36:09.748Z,97532.88
2019-03-10T19:38:36.370Z,97525.33
2019-03-10T19:41:03.129Z,97521.73
2019-03-10T19:43:29.834Z,97526.04
2019-03-10T19:45:56.413Z,97518.49
2019-03-10T19:48:22.991Z,97517.17
2019-03-10T19:50:49.563Z,97516.21
2019-03-10T19:53:16.164Z,97511.42
2019-03-10T19:55:42.743Z,97518.97
2019-03-10T19:58:09.323Z,97529.28
2019-03-10T20:00:35.903Z,97527.25
2019-03-10T20:03:02.808Z,97534.45
2019-03-10T20:05:29.397Z,97532.78
2019-03-10T20:07:55.968Z,97524.52
2019-03-10T20:10:22.572Z,97516.97
2019-03-10T20:12:49.143Z,97520.92
2019-03-10T20:15:15.759Z,97526.30
2019-03-10T20:17:42.341Z,97528.67
2019-03-10T20:20:08.949Z,97523.76
2019-03-10T20:22:35.526Z,97526.02
2019-03-10T20:25:02.120Z,97525.17
2019-03-10T20:27:28.697Z,97525.73
2019-03-10T20:29:55.304Z,97519.97
2019-03-10T20:32:21.876Z,97527.27
2019-03-10T20:34:48.514Z,97524.37
2019-03-10T20:37:15.295Z,97515.73
2019-03-10T20:39:41.875Z,97524.58
2019-03-10T20:42:08.445Z,97518.66
2019-03-10T20:44:35.131Z,97540.80
2019-03-10T20:47:01.716Z,97535.76
2019-03-10T20:49:28.400Z,97557.55
2019-03-10T20:51:54.975Z,97560.05
2019-03-10T20:54:21.563Z,97554.17
2019-03-10T20:56:48.149Z,97545.91
2019-03-10T20:59:14.762Z,97553.82
2019-03-10T21:01:41.336Z,97549.16
2019-03-10T21:04:09.003Z,97539.23
2019-03-10T21:06:35.581Z,97546.56
2019-03-10T21:09:02.179Z,97546.20
2019-03-10T21:11:28.790Z,97546.97
2019-03-10T21:13:55.398Z,97533.44
2019-03-10T21:16:21.970Z,97534.41
2019-03-10T21:18:48.557Z,97536.81
2019-03-10T21:21:15.607Z,97545.56
2019-03-10T21:23:42.291Z,97551.44
2019-03-10T21:26:08.879Z,97533.95
2019-03-10T21:28:35.439Z,97548.45
2019-03-10T21:31:02.020Z,97546.55
2019-03-10T21:33:28.589Z,97551.11
2019-03-10T21:35:55.171Z,97559.78
2019-03-10T21:38:21.782Z,97539.80
2019-03-10T21:40:48.408Z,97541.01
2019-03-10T21:43:14.988Z,97535.99
2019-03-10T21:45:41.564Z,97537.92
2019-03-10T21:48:08.150Z,97542.48
2019-03-10T21:50:34.788Z,97551.98
2019-03-10T21:53:01.445Z,97553.52
2019-03-10T21:55:28.059Z,97561.06
2019-03-10T21:57:54.637Z,97573.88
2019-03-10T22:00:21.217Z,97584.53
2019-03-10T22:02:47.875Z,97595.90
2019-03-10T22:05:15.429Z,97611.70
2019-03-10T22:07:42.009Z,97625.34
2019-03-10T22:10:08.601Z,97641.15
2019-03-10T22:12:35.177Z,97662.35
2019-03-10T22:15:01.777Z,97671.13
2019-03-10T22:17:28.360Z,97669.70
2019-03-10T22:19:54.942Z,97658.61
2019-03-10T22:22:21.522Z,97656.38
2019-03-10T22:24:48.113Z,97656.26
2019-03-10T22:27:14.679Z,97728.64
2019-03-10T22:29:41.292Z,97661.30
2019-03-10T22:32:07.872Z,97643.03
2019-03-10T22:34:34.490Z,97662.66
2019-03-10T22:37:01.057Z,97653.11
2019-03-10T22:39:27.671Z,97633.61
2019-03-10T22:41:54.234Z,97628.97
2019-03-10T22:44:20.842Z,97622.50
2019-03-10T22:46:47.414Z,97631.56
2019-03-10T22:49:13.986Z,97615.45
2019-03-10T22:51:40.566Z,97615.69
2019-03-10T22:54:07.130Z,97605.29
2019-03-10T22:56:33.699Z,97601.58
2019-03-10T22:59:00.275Z,97606.47
2019-03-10T23:01:26.839Z,97608.73
2019-03-10T23:03:53.410Z,97606.83
2019-03-10T23:06:19.984Z,97601.83
2019-03-10T23:08:46.564Z,97594.43
2019-03-10T23:11:13.136Z,97602.30
2019-03-10T23:13:39.725Z,97598.84
2019-03-10T23:16:06.293Z,97597.42
2019-03-10T23:18:32.863Z,97596.33
2019-03-10T23:20:59.428Z,97603.52
2019-03-10T23:23:26.007Z,97614.25
2019-03-10T23:25:52.588Z,97625.84
2019-03-10T23:28:19.186Z,97635.39
2019-03-10T23:30:45.742Z,97634.31
2019-03-10T23:33:12.309Z,97660.95
2019-03-10T23:35:38.882Z,97710.35
2019-03-10T23:38:05.458Z,97729.10
2019-03-10T23:40:32.030Z,97676.36
2019-03-10T23:42:58.599Z,97673.75
2019-03-10T23:45:25.175Z,97650.91
2019-03-10T23:47:51.741Z,97685.83
2019-03-10T23:50:18.318Z,97689.53
2019-03-10T23:52:44.889Z,97702.44
2019-03-10T23:55:11.461Z,97708.68
2019-03-10T23:57:38.104Z,97707.23
